Radiance Of The Seas — C6SE7 — position and weather

sailwx.info

Track history (hours):
 
Tides and Currents Weather Stations Pressure Air Temp Water Temp Dewpoint Dewpoint Depression Visibility Wind Speed Wind Dir Waves Ship Positions

Radiance Of The Seas

Operator: Royal Caribbean Cruises Ltd

Last reported at 2015-Jun-27 17:20 UTC. Time now 2015-Jul-01 11:55 UTC.
Position N 51°04' W 128°06'.

Type: Passenger vessel. MMSI: 311319000.

Date/timePositionNaut miles runAvg speedWind from/ knotsBaromVisibWave heightAir tempDewpointWater temp
2015-Jun-27 17:20N 51°04' W 128°06'1316.2
2015-Jun-27 16:33N 50°59' W 127°48'1413.6
2015-Jun-27 15:33N 50°51' W 127°30'1414.4
2015-Jun-27 14:33N 50°45' W 127°09'4213.8
2015-Jun-27 11:29N 50°28' W 126°08'2914.7
2015-Jun-27 09:30N 50°18' W 125°25'1313.8
2015-Jun-27 08:33N 50°06' W 125°18'1212.2
2015-Jun-27 07:33N 49°56' W 125°07'1312.6
2015-Jun-27 06:33N 49°47' W 124°53'1212.4
2015-Jun-27 05:34N 49°39' W 124°39'1212.5
2015-Jun-27 04:34N 49°30' W 124°26'1211.9
2015-Jun-27 03:33N 49°24' W 124°10'1312.5
2015-Jun-27 02:33N 49°22' W 123°51'1312.5
2015-Jun-27 01:34N 49°20' W 123°32'1312.6
2015-Jun-27 00:34N 49°19' W 123°13'4 4.3
2015-Jun-26 23:32N 49°17' W 123°06'0 0.0
2015-Jun-26 22:32N 49°17' W 123°06'0 0.0
2015-Jun-26 21:29N 49°17' W 123°06'0 0.0
2015-Jun-26 20:32N 49°17' W 123°06'0 0.0
2015-Jun-26 19:32N 49°17' W 123°06'0 0.0
2015-Jun-26 18:32N 49°17' W 123°06'0 0.0
2015-Jun-26 17:29N 49°17' W 123°06'0 0.0
2015-Jun-26 16:32N 49°17' W 123°06'0 0.0
2015-Jun-26 15:32N 49°17' W 123°06'0 0.0
2015-Jun-26 14:32N 49°17' W 123°06'1 1.2
2015-Jun-26 13:33N 49°18' W 123°07'10 9.5
2015-Jun-26 12:33N 49°18' W 123°22'10 9.7
2015-Jun-26 11:33N 49°19' W 123°37'10 9.5
2015-Jun-26 10:33N 49°20' W 123°51'10 9.6
2015-Jun-26 09:33N 49°22' W 124°06'10 9.6
2015-Jun-26 08:33N 49°25' W 124°20'9 9.3
2015-Jun-26 07:33N 49°31' W 124°31'10 9.5
2015-Jun-26 06:33N 49°38' W 124°41'10 9.6
2015-Jun-26 05:33N 49°45' W 124°51'10 9.5
2015-Jun-26 04:33N 49°52' W 125°01'9 9.0
2015-Jun-26 03:33N 49°58' W 125°11'7514.0
2015-Jun-25 22:11N 50°39' W 126°50'1219.0
2015-Jun-25 21:33N 50°45' W 127°07'1918.9
2015-Jun-25 20:33N 50°52' W 127°34'1616.1
2015-Jun-25 19:33N 51°01' W 127°55'  
2015-Jun-21 11:32N 58°13' W 135°30'1717.2
2015-Jun-21 10:33N 58°20' W 135°59'  
2015-Jun-18 06:33N 58°19' W 136°10'2020.4
2015-Jun-18 05:33N 58°15' W 135°31'  
Track history (hours):
 
Tides and Currents Weather Stations Pressure Air Temp Water Temp Dewpoint Dewpoint Depression Visibility Wind Speed Wind Dir Waves Ship Positions

Radiance Of The Seas

Operator: Royal Caribbean Cruises Ltd

Last reported at 2015-Jun-27 17:20 UTC. Time now 2015-Jul-01 11:55 UTC.
Position N 51°04' W 128°06'.

Type: Passenger vessel. MMSI: 311319000.

Date/timePositionNaut miles runAvg speedWind from/ knotsBaromVisibWave heightAir tempDewpointWater temp
2015-Jun-27 17:20N 51°04' W 128°06'1316.2
2015-Jun-27 16:33N 50°59' W 127°48'1413.6
2015-Jun-27 15:33N 50°51' W 127°30'1414.4
2015-Jun-27 14:33N 50°45' W 127°09'4213.8
2015-Jun-27 11:29N 50°28' W 126°08'2914.7
2015-Jun-27 09:30N 50°18' W 125°25'1313.8
2015-Jun-27 08:33N 50°06' W 125°18'1212.2
2015-Jun-27 07:33N 49°56' W 125°07'1312.6
2015-Jun-27 06:33N 49°47' W 124°53'1212.4
2015-Jun-27 05:34N 49°39' W 124°39'1212.5
2015-Jun-27 04:34N 49°30' W 124°26'1211.9
2015-Jun-27 03:33N 49°24' W 124°10'1312.5
2015-Jun-27 02:33N 49°22' W 123°51'1312.5
2015-Jun-27 01:34N 49°20' W 123°32'1312.6
2015-Jun-27 00:34N 49°19' W 123°13'4 4.3
2015-Jun-26 23:32N 49°17' W 123°06'0 0.0
2015-Jun-26 22:32N 49°17' W 123°06'0 0.0
2015-Jun-26 21:29N 49°17' W 123°06'0 0.0
2015-Jun-26 20:32N 49°17' W 123°06'0 0.0
2015-Jun-26 19:32N 49°17' W 123°06'0 0.0
2015-Jun-26 18:32N 49°17' W 123°06'0 0.0
2015-Jun-26 17:29N 49°17' W 123°06'0 0.0
2015-Jun-26 16:32N 49°17' W 123°06'0 0.0
2015-Jun-26 15:32N 49°17' W 123°06'0 0.0
2015-Jun-26 14:32N 49°17' W 123°06'1 1.2
2015-Jun-26 13:33N 49°18' W 123°07'10 9.5
2015-Jun-26 12:33N 49°18' W 123°22'10 9.7
2015-Jun-26 11:33N 49°19' W 123°37'10 9.5
2015-Jun-26 10:33N 49°20' W 123°51'10 9.6
2015-Jun-26 09:33N 49°22' W 124°06'10 9.6
2015-Jun-26 08:33N 49°25' W 124°20'9 9.3
2015-Jun-26 07:33N 49°31' W 124°31'10 9.5
2015-Jun-26 06:33N 49°38' W 124°41'10 9.6
2015-Jun-26 05:33N 49°45' W 124°51'10 9.5
2015-Jun-26 04:33N 49°52' W 125°01'9 9.0
2015-Jun-26 03:33N 49°58' W 125°11'7514.0
2015-Jun-25 22:11N 50°39' W 126°50'1219.0
2015-Jun-25 21:33N 50°45' W 127°07'1918.9
2015-Jun-25 20:33N 50°52' W 127°34'1616.1
2015-Jun-25 19:33N 51°01' W 127°55'  
2015-Jun-21 11:32N 58°13' W 135°30'1717.2
2015-Jun-21 10:33N 58°20' W 135°59'  
2015-Jun-18 06:33N 58°19' W 136°10'2020.4
2015-Jun-18 05:33N 58°15' W 135°31'  

Dump ship's entire track history